createdAt,value
2022-10-08T00:02:42.034Z,2.90
2022-10-08T00:05:30.351Z,2.70
2022-10-08T00:08:18.667Z,2.70
2022-10-08T00:11:11.524Z,3.53
2022-10-08T00:14:00.917Z,2.73
2022-10-08T00:16:49.240Z,3.27
2022-10-08T00:19:37.624Z,2.67
2022-10-08T00:22:26.349Z,3.13
2022-10-08T00:25:14.720Z,2.60
2022-10-08T00:28:03.097Z,2.73
2022-10-08T00:30:51.468Z,2.70
2022-10-08T00:33:40.280Z,3.10
2022-10-08T00:36:31.649Z,2.90
2022-10-08T00:39:21.090Z,3.37
2022-10-08T00:42:10.913Z,3.47
2022-10-08T00:45:00.786Z,3.03
2022-10-08T00:47:50.383Z,3.00
2022-10-08T00:50:39.692Z,4.27
2022-10-08T00:53:28.082Z,3.40
2022-10-08T00:56:16.598Z,3.30
2022-10-08T00:59:04.362Z,2.77
2022-10-08T01:01:53.568Z,3.60
2022-10-08T01:04:43.274Z,3.23
2022-10-08T01:07:49.415Z,3.23
2022-10-08T01:10:50.977Z,3.03
2022-10-08T01:13:49.821Z,2.70
2022-10-08T01:16:46.213Z,3.13
2022-10-08T01:19:52.356Z,3.10
2022-10-08T01:22:58.242Z,2.93
2022-10-08T01:25:48.338Z,3.00
2022-10-08T01:28:41.448Z,2.80
2022-10-08T01:31:31.246Z,3.00
2022-10-08T01:34:24.199Z,3.20
2022-10-08T01:37:13.518Z,2.50
2022-10-08T01:40:02.912Z,2.97
2022-10-08T01:42:52.388Z,2.83
2022-10-08T01:45:41.904Z,2.73
2022-10-08T01:48:33.906Z,2.83
2022-10-08T01:51:23.537Z,3.10
2022-10-08T01:54:13.456Z,2.40
2022-10-08T01:57:01.377Z,3.00
2022-10-08T01:59:57.870Z,2.57
2022-10-08T02:02:45.540Z,2.97
2022-10-08T02:05:34.731Z,2.87
2022-10-08T02:08:22.635Z,3.07
2022-10-08T02:11:09.983Z,2.90
2022-10-08T02:13:57.590Z,2.60
2022-10-08T02:16:50.070Z,3.17
2022-10-08T02:19:45.474Z,2.93
2022-10-08T02:22:38.203Z,2.53
2022-10-08T02:25:25.597Z,3.00
2022-10-08T02:28:22.348Z,3.37
2022-10-08T02:31:14.188Z,2.80
2022-10-08T02:34:05.718Z,4.03
2022-10-08T02:36:55.802Z,3.83
2022-10-08T02:39:45.013Z,4.10
2022-10-08T02:42:33.330Z,2.87
2022-10-08T02:45:30.053Z,3.63
2022-10-08T02:48:20.728Z,2.70
2022-10-08T02:51:11.266Z,2.63
2022-10-08T02:53:59.119Z,3.40
2022-10-08T02:56:48.943Z,3.33
2022-10-08T02:59:36.526Z,3.20
2022-10-08T03:02:28.095Z,3.10
2022-10-08T03:05:18.018Z,3.63
2022-10-08T03:08:06.085Z,3.33
2022-10-08T03:10:53.917Z,2.70
2022-10-08T03:13:43.430Z,3.07
2022-10-08T03:16:37.781Z,3.20
2022-10-08T03:19:25.235Z,2.90
2022-10-08T03:22:12.639Z,3.27
2022-10-08T03:24:59.987Z,3.07
2022-10-08T03:27:47.345Z,2.97
2022-10-08T03:30:35.132Z,2.63
2022-10-08T03:33:22.782Z,3.00
2022-10-08T03:36:10.231Z,2.97
2022-10-08T03:38:57.935Z,3.40
2022-10-08T03:41:45.300Z,2.93
2022-10-08T03:44:32.647Z,3.07
2022-10-08T03:47:20.197Z,2.93
2022-10-08T03:50:07.657Z,3.20
2022-10-08T03:52:54.977Z,3.60
2022-10-08T03:55:42.349Z,3.80
2022-10-08T03:58:30.141Z,3.10
2022-10-08T04:01:17.961Z,3.17
2022-10-08T04:04:05.396Z,3.43
2022-10-08T04:06:52.728Z,3.50
2022-10-08T04:09:40.072Z,2.77
2022-10-08T04:12:27.470Z,3.33
2022-10-08T04:15:14.849Z,3.13
2022-10-08T04:18:02.187Z,3.47
2022-10-08T04:20:49.617Z,4.03
2022-10-08T04:23:38.694Z,3.30
2022-10-08T04:26:26.087Z,3.23
2022-10-08T04:29:13.513Z,3.33
2022-10-08T04:32:01.018Z,3.30
2022-10-08T04:34:48.383Z,3.07
2022-10-08T04:37:36.782Z,3.37
2022-10-08T04:40:24.147Z,3.40
2022-10-08T04:43:11.485Z,3.00
2022-10-08T04:45:58.887Z,3.70
2022-10-08T04:48:47.392Z,3.47
2022-10-08T04:51:34.790Z,3.50
2022-10-08T04:54:22.175Z,3.37
2022-10-08T04:57:09.524Z,3.47
2022-10-08T05:00:17.509Z,3.33
2022-10-08T05:03:04.446Z,3.30
2022-10-08T05:05:51.893Z,3.40
2022-10-08T05:08:39.358Z,3.90
2022-10-08T05:11:27.641Z,3.40
2022-10-08T05:14:15.052Z,4.50
2022-10-08T05:17:02.449Z,4.30
2022-10-08T05:19:50.502Z,3.90
2022-10-08T05:22:37.827Z,4.63
2022-10-08T05:25:25.173Z,3.50
2022-10-08T05:28:12.545Z,3.53
2022-10-08T05:31:01.522Z,3.47
2022-10-08T05:33:48.945Z,4.40
2022-10-08T05:36:36.331Z,3.87
2022-10-08T05:39:23.660Z,3.33
2022-10-08T05:42:10.992Z,3.23
2022-10-08T05:44:58.383Z,3.10
2022-10-08T05:47:47.437Z,3.43
2022-10-08T05:50:36.820Z,3.40
2022-10-08T05:53:24.547Z,3.73
2022-10-08T05:56:12.581Z,4.20
2022-10-08T05:58:59.912Z,3.43
2022-10-08T06:01:47.469Z,3.40
2022-10-08T06:04:34.852Z,3.53
2022-10-08T06:07:22.222Z,3.53
2022-10-08T06:10:09.664Z,3.90
2022-10-08T06:12:56.974Z,3.33
2022-10-08T06:15:44.448Z,3.57
2022-10-08T06:18:33.355Z,3.77
2022-10-08T06:21:21.962Z,3.40
2022-10-08T06:24:11.077Z,3.57
2022-10-08T06:26:58.613Z,4.03
2022-10-08T06:29:45.950Z,3.57
2022-10-08T06:32:33.567Z,3.87
2022-10-08T06:35:20.902Z,3.83
2022-10-08T06:38:08.241Z,3.60
2022-10-08T06:40:57.700Z,4.10
2022-10-08T06:43:45.100Z,4.07
2022-10-08T06:46:32.855Z,4.07
2022-10-08T06:49:22.101Z,3.90
2022-10-08T06:52:09.470Z,4.37
2022-10-08T06:54:56.787Z,4.67
2022-10-08T06:57:44.156Z,4.40
2022-10-08T07:00:31.887Z,3.93
2022-10-08T07:03:19.324Z,3.20
2022-10-08T07:06:08.034Z,4.30
2022-10-08T07:08:56.023Z,4.20
2022-10-08T07:11:43.429Z,3.83
2022-10-08T07:14:30.748Z,3.60
2022-10-08T07:17:18.226Z,3.93
2022-10-08T07:20:05.873Z,3.27
2022-10-08T07:22:53.210Z,3.80
2022-10-08T07:25:40.536Z,3.43
2022-10-08T07:28:29.252Z,3.40
2022-10-08T07:31:18.810Z,5.13
2022-10-08T07:34:07.560Z,4.37
2022-10-08T07:36:55.001Z,4.70
2022-10-08T07:39:42.325Z,4.20
2022-10-08T07:42:31.612Z,3.73
2022-10-08T07:45:18.983Z,3.83
2022-10-08T07:48:06.337Z,4.30
2022-10-08T07:50:53.699Z,4.73
2022-10-08T07:53:41.769Z,3.57
2022-10-08T07:56:29.099Z,5.10
2022-10-08T07:59:16.596Z,3.87
2022-10-08T08:02:04.225Z,4.00
2022-10-08T08:04:51.642Z,3.70
2022-10-08T08:07:38.993Z,4.10
2022-10-08T08:10:26.359Z,3.93
2022-10-08T08:13:13.918Z,3.67
2022-10-08T08:16:02.298Z,3.43
2022-10-08T08:18:50.854Z,3.30
2022-10-08T08:21:39.194Z,3.90
2022-10-08T08:24:26.532Z,3.17
2022-10-08T08:27:13.936Z,3.57
2022-10-08T08:30:01.634Z,3.33
2022-10-08T08:32:49.670Z,3.10
2022-10-08T08:35:37.132Z,3.20
2022-10-08T08:38:24.516Z,3.10
2022-10-08T08:41:30.594Z,3.20
2022-10-08T08:44:18.523Z,3.03
2022-10-08T08:47:20.995Z,3.83
2022-10-08T08:50:08.404Z,2.70
2022-10-08T08:52:56.493Z,3.50
2022-10-08T08:55:45.349Z,2.70
2022-10-08T08:58:36.028Z,2.87
2022-10-08T09:01:29.953Z,2.70
2022-10-08T09:04:25.873Z,3.40
2022-10-08T09:07:15.400Z,3.15
2022-10-08T09:10:05.472Z,3.13
2022-10-08T09:12:54.142Z,2.33
2022-10-08T09:15:42.833Z,2.38
2022-10-08T09:18:30.236Z,3.05
2022-10-08T09:21:18.285Z,2.33
2022-10-08T09:24:06.109Z,2.63
2022-10-08T09:26:53.844Z,2.40
2022-10-08T09:29:41.294Z,2.80
2022-10-08T09:32:29.058Z,2.67
2022-10-08T09:35:16.604Z,2.60
2022-10-08T09:38:06.074Z,2.30
2022-10-08T09:41:00.752Z,2.22
2022-10-08T09:44:06.181Z,2.00
2022-10-08T09:47:05.471Z,2.25
2022-10-08T09:50:22.515Z,2.25
2022-10-08T09:53:10.902Z,2.20
2022-10-08T09:56:03.045Z,3.08
2022-10-08T09:58:53.004Z,2.00
2022-10-08T10:01:46.795Z,2.40
2022-10-08T10:04:40.335Z,2.20
2022-10-08T10:07:38.574Z,2.15
2022-10-08T10:10:35.346Z,2.35
2022-10-08T10:13:35.472Z,2.17
2022-10-08T10:16:28.864Z,2.33
2022-10-08T10:19:25.285Z,2.45
2022-10-08T10:22:15.149Z,2.40
2022-10-08T10:25:06.875Z,2.00
2022-10-08T10:27:57.930Z,2.13
2022-10-08T10:30:54.731Z,1.70
2022-10-08T10:33:55.161Z,1.88
2022-10-08T10:36:44.451Z,1.58
2022-10-08T10:39:37.633Z,1.63
2022-10-08T10:42:30.043Z,1.65
2022-10-08T10:45:22.527Z,1.90
2022-10-08T10:48:10.893Z,2.10
2022-10-08T10:51:02.550Z,1.70
2022-10-08T10:54:07.216Z,1.87
2022-10-08T10:56:57.025Z,2.00
2022-10-08T11:00:04.818Z,1.50
2022-10-08T11:03:15.615Z,1.63
2022-10-08T11:06:09.547Z,1.50
2022-10-08T11:08:57.267Z,1.58
2022-10-08T11:11:45.696Z,1.55
2022-10-08T11:14:33.525Z,1.45
2022-10-08T11:17:27.937Z,1.40
2022-10-08T11:20:15.524Z,1.92
2022-10-08T11:23:05.917Z,1.70
2022-10-08T11:29:18.240Z,1.80
2022-10-08T11:32:08.844Z,1.53
2022-10-08T11:34:59.243Z,1.20
2022-10-08T11:37:54.312Z,0.97
2022-10-08T11:40:49.044Z,0.70
2022-10-08T11:43:36.403Z,0.90
2022-10-08T11:46:28.570Z,0.80
2022-10-08T11:49:16.060Z,1.10
2022-10-08T11:52:13.443Z,0.97
2022-10-08T11:55:02.022Z,1.70
2022-10-08T11:58:07.757Z,1.20
2022-10-08T12:01:04.278Z,1.13
2022-10-08T12:04:09.884Z,1.10
2022-10-08T12:07:08.461Z,1.30
2022-10-08T12:10:01.953Z,2.70
2022-10-08T12:12:49.760Z,1.50
2022-10-08T12:15:39.187Z,0.93
2022-10-08T12:18:26.681Z,1.20
2022-10-08T12:21:17.174Z,1.37
2022-10-08T12:24:24.983Z,1.33
2022-10-08T12:27:33.632Z,1.10
2022-10-08T12:30:21.426Z,1.03
2022-10-08T12:33:09.827Z,0.90
2022-10-08T12:36:12.419Z,1.10
2022-10-08T12:39:02.558Z,0.97
2022-10-08T12:41:59.176Z,1.03
2022-10-08T12:44:57.134Z,1.10
2022-10-08T12:47:51.915Z,0.93
2022-10-08T12:50:45.663Z,1.73
2022-10-08T12:53:34.141Z,1.20
2022-10-08T12:56:24.427Z,1.33
2022-10-08T12:59:12.193Z,1.17
2022-10-08T13:01:59.746Z,1.00
2022-10-08T13:04:47.547Z,1.20
2022-10-08T13:07:35.950Z,1.13
2022-10-08T13:10:24.836Z,1.23
2022-10-08T13:13:32.946Z,1.10
2022-10-08T13:16:21.851Z,1.43
2022-10-08T13:19:17.260Z,1.73
2022-10-08T13:22:07.896Z,1.20
2022-10-08T13:24:55.341Z,1.60
2022-10-08T13:27:43.118Z,1.43
2022-10-08T13:30:30.777Z,1.30
2022-10-08T13:33:20.055Z,1.57
2022-10-08T13:36:07.547Z,1.40
2022-10-08T13:38:54.959Z,1.50
2022-10-08T13:41:52.401Z,1.60
2022-10-08T13:44:41.070Z,1.67
2022-10-08T13:47:29.010Z,1.70
2022-10-08T13:50:16.916Z,1.50
2022-10-08T13:53:05.136Z,2.23
2022-10-08T13:55:52.573Z,1.80
2022-10-08T13:58:39.896Z,1.80
2022-10-08T14:01:27.318Z,1.60
2022-10-08T14:04:15.026Z,1.70
2022-10-08T14:07:02.965Z,1.50
2022-10-08T14:09:50.476Z,1.73
2022-10-08T14:12:37.920Z,1.50
2022-10-08T14:15:25.265Z,1.80
2022-10-08T14:18:12.643Z,1.43
2022-10-08T14:21:00.281Z,1.40
2022-10-08T14:23:47.623Z,2.00
2022-10-08T14:26:34.991Z,1.47
2022-10-08T14:29:22.359Z,1.63
2022-10-08T14:32:11.222Z,1.57
2022-10-08T14:34:58.648Z,1.30
2022-10-08T14:37:46.592Z,1.70
2022-10-08T14:40:34.218Z,1.70
2022-10-08T14:43:22.100Z,1.57
2022-10-08T14:46:09.799Z,1.67
2022-10-08T14:48:57.253Z,1.77
2022-10-08T14:51:44.782Z,1.80
2022-10-08T14:54:32.130Z,1.40
2022-10-08T14:57:19.535Z,1.80
2022-10-08T15:00:07.580Z,1.40
2022-10-08T15:02:55.105Z,1.77
2022-10-08T15:05:42.428Z,1.80
2022-10-08T15:08:29.909Z,1.57
2022-10-08T15:11:17.291Z,1.50
2022-10-08T15:14:04.673Z,1.60
2022-10-08T15:16:52.136Z,1.93
2022-10-08T15:19:39.526Z,1.80
2022-10-08T15:22:26.945Z,1.87
2022-10-08T15:25:14.666Z,2.30
2022-10-08T15:28:02.261Z,1.87
2022-10-08T15:30:49.871Z,2.13
2022-10-08T15:33:38.219Z,1.70
2022-10-08T15:36:28.568Z,2.13
2022-10-08T15:39:19.721Z,1.60
2022-10-08T15:42:07.304Z,1.60
2022-10-08T15:44:55.175Z,1.90
2022-10-08T15:47:42.546Z,1.70
2022-10-08T15:50:29.907Z,2.10
2022-10-08T15:53:17.290Z,2.03
2022-10-08T15:56:05.146Z,1.40
2022-10-08T15:58:52.625Z,2.10
2022-10-08T16:01:40.125Z,2.07
2022-10-08T16:04:27.583Z,1.80
2022-10-08T16:07:15.002Z,2.03
2022-10-08T16:10:02.468Z,1.77
2022-10-08T16:12:50.095Z,1.60
2022-10-08T16:15:38.008Z,1.63
2022-10-08T16:18:25.346Z,2.00
2022-10-08T16:21:13.582Z,2.33
2022-10-08T16:24:01.694Z,1.50
2022-10-08T16:26:49.048Z,2.80
2022-10-08T16:29:36.444Z,1.60
2022-10-08T16:32:23.973Z,2.60
2022-10-08T16:35:11.347Z,2.10
2022-10-08T16:37:59.361Z,1.90
2022-10-08T16:40:46.817Z,2.07
2022-10-08T16:43:34.185Z,2.07
2022-10-08T16:46:22.975Z,2.57
2022-10-08T16:49:23.789Z,1.53
2022-10-08T16:52:12.286Z,2.10
2022-10-08T16:54:59.771Z,1.97
2022-10-08T16:57:51.510Z,2.00
2022-10-08T17:00:39.151Z,2.03
2022-10-08T17:03:26.523Z,1.80
2022-10-08T17:06:13.944Z,2.40
2022-10-08T17:09:01.359Z,2.10
2022-10-08T17:11:49.079Z,2.20
2022-10-08T17:14:37.703Z,2.33
2022-10-08T17:17:25.117Z,2.30
2022-10-08T17:20:12.481Z,1.97
2022-10-08T17:22:59.853Z,2.27
2022-10-08T17:25:47.206Z,2.47
2022-10-08T17:28:35.864Z,1.67
2022-10-08T17:31:29.251Z,2.10
2022-10-08T17:34:16.635Z,2.13
2022-10-08T17:37:03.976Z,1.70
2022-10-08T17:39:51.301Z,1.73
2022-10-08T17:42:39.622Z,1.90
2022-10-08T17:45:26.947Z,1.80
2022-10-08T17:48:14.301Z,2.07
2022-10-08T17:51:02.787Z,1.80
2022-10-08T17:53:53.816Z,1.90
2022-10-08T17:56:41.246Z,1.80
2022-10-08T17:59:29.018Z,1.60
2022-10-08T18:02:16.382Z,2.20
2022-10-08T18:05:03.804Z,1.87
2022-10-08T18:07:51.246Z,1.90
2022-10-08T18:10:38.803Z,2.40
2022-10-08T18:13:26.500Z,2.13
2022-10-08T18:16:15.205Z,2.77
2022-10-08T18:19:08.359Z,1.77
2022-10-08T18:21:56.239Z,2.63
2022-10-08T18:24:43.572Z,2.33
2022-10-08T18:27:30.943Z,1.80
2022-10-08T18:30:18.357Z,2.63
2022-10-08T18:33:06.272Z,2.07
2022-10-08T18:35:53.598Z,2.13
2022-10-08T18:38:42.068Z,2.40
2022-10-08T18:41:30.666Z,2.50
2022-10-08T18:44:19.684Z,2.23
2022-10-08T18:47:07.022Z,2.17
2022-10-08T18:49:54.418Z,2.37
2022-10-08T18:52:41.910Z,1.93
2022-10-08T18:55:29.461Z,2.43
2022-10-08T18:58:16.766Z,2.23
2022-10-08T19:01:04.364Z,3.10
2022-10-08T19:03:53.338Z,2.23
2022-10-08T19:06:42.345Z,2.50
2022-10-08T19:09:29.712Z,2.20
2022-10-08T19:12:17.041Z,1.97
2022-10-08T19:15:04.568Z,2.50
2022-10-08T19:17:51.999Z,1.80
2022-10-08T19:20:39.316Z,2.00
2022-10-08T19:23:26.648Z,2.00
2022-10-08T19:26:14.471Z,2.20
2022-10-08T19:29:01.822Z,2.33
2022-10-08T19:31:50.112Z,2.13
2022-10-08T19:34:37.554Z,2.20
2022-10-08T19:37:24.952Z,2.57
2022-10-08T19:40:12.406Z,2.30
2022-10-08T19:42:59.751Z,2.10
2022-10-08T19:45:47.154Z,2.50
2022-10-08T19:48:34.545Z,2.10
2022-10-08T19:51:22.205Z,2.93
2022-10-08T19:54:09.659Z,2.10
2022-10-08T19:56:56.991Z,2.10
2022-10-08T19:59:44.469Z,2.13
2022-10-08T20:02:31.859Z,2.93
2022-10-08T20:05:19.268Z,2.10
2022-10-08T20:08:06.595Z,2.43
2022-10-08T20:10:53.975Z,2.50
2022-10-08T20:13:42.124Z,2.57
2022-10-08T20:16:33.741Z,2.30
2022-10-08T20:19:22.486Z,2.50
2022-10-08T20:22:12.013Z,2.47
2022-10-08T20:24:59.511Z,2.43
2022-10-08T20:27:46.964Z,2.43
2022-10-08T20:30:34.351Z,2.73
2022-10-08T20:33:21.774Z,2.50
2022-10-08T20:36:09.902Z,2.50
2022-10-08T20:38:57.917Z,2.20
2022-10-08T20:41:45.478Z,2.30
2022-10-08T20:44:32.827Z,2.20
2022-10-08T20:47:20.193Z,2.37
2022-10-08T20:50:07.718Z,2.13
2022-10-08T20:52:55.081Z,2.50
2022-10-08T20:55:42.468Z,2.17
2022-10-08T20:58:30.522Z,2.03
2022-10-08T21:01:19.869Z,2.87
2022-10-08T21:04:07.828Z,2.20
2022-10-08T21:06:55.201Z,2.20
2022-10-08T21:09:42.545Z,2.10
2022-10-08T21:12:29.931Z,2.40
2022-10-08T21:15:17.340Z,2.40
2022-10-08T21:18:04.791Z,2.57
2022-10-08T21:20:53.570Z,2.10
2022-10-08T21:23:41.569Z,2.43
2022-10-08T21:26:30.188Z,2.47
2022-10-08T21:29:17.556Z,2.30
2022-10-08T21:32:04.973Z,2.17
2022-10-08T21:34:52.443Z,2.77
2022-10-08T21:37:39.832Z,2.17
2022-10-08T21:40:27.207Z,2.53
2022-10-08T21:43:14.572Z,2.00
2022-10-08T21:46:02.119Z,2.10
2022-10-08T21:48:54.023Z,2.50
2022-10-08T21:51:41.415Z,2.40
2022-10-08T21:54:28.782Z,2.03
2022-10-08T21:57:16.580Z,2.03
2022-10-08T22:00:07.632Z,1.80
2022-10-08T22:02:55.487Z,2.10
2022-10-08T22:05:49.597Z,2.17
2022-10-08T22:08:36.976Z,2.37
2022-10-08T22:11:24.381Z,2.13
2022-10-08T22:14:11.832Z,2.30
2022-10-08T22:16:59.198Z,2.23
2022-10-08T22:19:46.561Z,2.40
2022-10-08T22:22:33.905Z,2.03
2022-10-08T22:25:21.218Z,2.20
2022-10-08T22:28:09.112Z,2.73
2022-10-08T22:30:56.484Z,2.50
2022-10-08T22:33:43.927Z,2.50
2022-10-08T22:36:32.562Z,2.30
2022-10-08T22:39:19.908Z,2.40
2022-10-08T22:42:07.223Z,1.93
2022-10-08T22:44:54.555Z,2.43
2022-10-08T22:47:41.967Z,2.40
2022-10-08T22:50:29.285Z,2.67
2022-10-08T22:53:16.654Z,2.60
2022-10-08T22:56:06.871Z,2.93
2022-10-08T22:58:54.380Z,2.17
2022-10-08T23:01:41.714Z,2.40
2022-10-08T23:04:29.071Z,1.93
2022-10-08T23:07:16.444Z,2.07
2022-10-08T23:10:03.938Z,3.43
2022-10-08T23:12:53.132Z,2.13
2022-10-08T23:15:40.448Z,2.17
2022-10-08T23:18:27.827Z,2.57
2022-10-08T23:21:16.401Z,2.47
2022-10-08T23:24:04.070Z,2.73
2022-10-08T23:26:51.396Z,2.30
2022-10-08T23:29:38.839Z,2.50
2022-10-08T23:32:26.183Z,2.70
2022-10-08T23:35:13.585Z,2.10
2022-10-08T23:38:00.909Z,2.40
2022-10-08T23:40:48.284Z,3.10
2022-10-08T23:43:37.003Z,2.57
2022-10-08T23:46:26.384Z,2.20
2022-10-08T23:49:13.760Z,2.53
2022-10-08T23:52:01.380Z,2.40
2022-10-08T23:54:48.752Z,2.77
2022-10-08T23:57:36.126Z,2.23
